Time;durP1;ratioP1;P1;durP2;ratioP2;P2;SDS_P1;SDS_P2;PMS_P1;PMS_P2;Temp;Humidity;BMP_temperature;BMP_pressure;BME280_temperature;BME280_humidity;BME280_pressure;Samples;Min_cycle;Max_cycle;Signal;HPM_P1;HPM_P2
2023/09/11 00:01:02;;;;;;;15.88;12.00;;;;;;;;;;5008717;28;98565;-86
2023/09/11 00:03:29;;;;;;;19.17;11.85;;;;;;;;;;4990316;28;99786;-86
2023/09/11 00:06:03;;;;;;;17.17;12.15;;;;;;;;;;5008676;28;99715;-87
2023/09/11 00:08:31;;;;;;;16.08;12.70;;;;;;;;;;5008973;28;97841;-87
2023/09/11 00:10:58;;;;;;;18.15;12.38;;;;;;;;;;5011535;28;98587;-86
2023/09/11 00:13:25;;;;;;;16.92;11.52;;;;;;;;;;5008303;28;98788;-86
2023/09/11 00:15:52;;;;;;;;;;;;;;;;;;4990686;28;99593;-86
2023/09/11 00:18:18;;;;;;;16.73;11.63;;;;;;;;;;5009688;28;110075;-87
2023/09/11 00:20:45;;;;;;;15.80;10.90;;;;;;;;;;4992565;28;98602;-87
2023/09/11 00:23:12;;;;;;;16.60;10.90;;;;;;;;;;4992262;28;100392;-87
2023/09/11 00:25:38;;;;;;;16.45;10.75;;;;;;;;;;5021093;28;98457;-88
2023/09/11 00:28:05;;;;;;;16.38;11.85;;;;;;;;;;5025582;28;98508;-88
2023/09/11 00:30:32;;;;;;;19.27;12.60;;;;;;;;;;5013045;28;98714;-88
2023/09/11 00:32:58;;;;;;;17.15;11.75;;;;;;;;;;4994002;28;98512;-87
2023/09/11 00:35:25;;;;;;;20.00;13.50;;;;;;;;;;4989861;28;98516;-88
2023/09/11 00:37:51;;;;;;;17.02;12.68;;;;;;;;;;4989115;28;99374;-87
2023/09/11 00:40:18;;;;;;;15.45;11.80;;;;;;;;;;4972872;28;99754;-88
2023/09/11 00:42:44;;;;;;;19.25;12.85;;;;;;;;;;5007388;28;100245;-86
2023/09/11 00:45:11;;;;;;;19.67;11.82;;;;;;;;;;4989113;28;100757;-84
2023/09/11 00:47:39;;;;;;;18.63;13.30;;;;;;;;;;4989345;28;99922;-86
2023/09/11 00:50:07;;;;;;;18.48;13.20;;;;;;;;;;4989393;28;100209;-85
2023/09/11 00:52:33;;;;;;;17.55;12.30;;;;;;;;;;5007746;28;99177;-84
2023/09/11 00:55:00;;;;;;;17.85;13.38;;;;;;;;;;5002616;28;99124;-86
2023/09/11 00:57:27;;;;;;;17.80;13.60;;;;;;;;;;4989037;28;102239;-84
2023/09/11 00:59:54;;;;;;;19.15;14.27;;;;;;;;;;4989161;28;98645;-84
2023/09/11 01:02:21;;;;;;;;;;;;;;;;;;4972907;28;101903;-85
2023/09/11 01:04:48;;;;;;;18.90;13.40;;;;;;;;;;5002257;28;102477;-87
2023/09/11 01:07:16;;;;;;;19.20;14.00;;;;;;;;;;5019534;28;98520;-84
2023/09/11 01:09:43;;;;;;;21.20;15.20;;;;;;;;;;5007543;28;99599;-84
2023/09/11 01:12:09;;;;;;;19.85;14.63;;;;;;;;;;4992315;28;99132;-84
2023/09/11 01:14:39;;;;;;;20.80;14.73;;;;;;;;;;4978234;28;98517;-84
2023/09/11 01:17:25;;;;;;;19.88;15.13;;;;;;;;;;5006319;28;98819;-85
2023/09/11 01:19:58;;;;;;;19.67;15.15;;;;;;;;;;4987407;28;98588;-84
2023/09/11 01:22:27;;;;;;;21.00;14.68;;;;;;;;;;5003920;28;102068;-84
2023/09/11 01:24:54;;;;;;;19.98;14.00;;;;;;;;;;5007226;28;99975;-85
2023/09/11 01:27:20;;;;;;;18.38;13.23;;;;;;;;;;4987363;28;98612;-85
2023/09/11 01:29:48;;;;;;;19.08;12.93;;;;;;;;;;5006196;28;99736;-85
2023/09/11 01:32:17;;;;;;;19.63;13.77;;;;;;;;;;5006074;28;99233;-85
2023/09/11 01:34:44;;;;;;;20.48;13.73;;;;;;;;;;5002436;28;98966;-86
2023/09/11 01:37:10;;;;;;;19.27;13.50;;;;;;;;;;5009770;28;98876;-86
2023/09/11 01:39:37;;;;;;;19.75;14.05;;;;;;;;;;4988280;28;98576;-88
2023/09/11 01:42:09;;;;;;;18.30;13.07;;;;;;;;;;5007069;28;98676;-87
2023/09/11 01:44:46;;;;;;;17.38;12.32;;;;;;;;;;4988102;28;100417;-88
2023/09/11 01:47:14;;;;;;;18.85;13.32;;;;;;;;;;4972535;28;98413;-86
2023/09/11 01:49:42;;;;;;;22.17;14.20;;;;;;;;;;5006479;28;99287;-86
2023/09/11 01:52:09;;;;;;;19.88;14.20;;;;;;;;;;4987403;28;100216;-87
2023/09/11 01:54:35;;;;;;;;;;;;;;;;;;5006488;28;100011;-86
2023/09/11 01:57:02;;;;;;;20.70;14.27;;;;;;;;;;4990121;28;119847;-87
2023/09/11 01:59:30;;;;;;;18.67;13.00;;;;;;;;;;4990667;28;101928;-85
2023/09/11 02:01:56;;;;;;;17.33;13.32;;;;;;;;;;4986684;28;102147;-86
2023/09/11 02:04:23;;;;;;;18.42;13.27;;;;;;;;;;4987711;28;100522;-86
2023/09/11 02:06:50;;;;;;;19.75;13.88;;;;;;;;;;5006754;28;98837;-86
2023/09/11 02:09:16;;;;;;;18.73;12.48;;;;;;;;;;5006254;28;98813;-86
2023/09/11 02:11:43;;;;;;;18.33;12.55;;;;;;;;;;5006591;28;98646;-85
2023/09/11 02:14:09;;;;;;;17.73;13.35;;;;;;;;;;4988030;28;98871;-86
2023/09/11 02:16:36;;;;;;;19.00;13.30;;;;;;;;;;4988479;28;101986;-86
2023/09/11 02:19:03;;;;;;;18.42;12.75;;;;;;;;;;4987057;28;102977;-86
2023/09/11 02:21:29;;;;;;;19.33;12.95;;;;;;;;;;5009669;28;98920;-86
2023/09/11 02:23:56;;;;;;;20.17;13.68;;;;;;;;;;4989717;28;99170;-86
2023/09/11 02:26:22;;;;;;;18.27;13.32;;;;;;;;;;5006970;28;99019;-86
2023/09/11 02:28:49;;;;;;;16.38;12.23;;;;;;;;;;5006580;28;100005;-85
2023/09/11 02:31:15;;;;;;;17.83;12.82;;;;;;;;;;4987705;28;99206;-85
2023/09/11 02:33:42;;;;;;;17.60;12.70;;;;;;;;;;4988089;28;99178;-86
2023/09/11 02:36:08;;;;;;;16.73;12.55;;;;;;;;;;4993894;28;99351;-86
2023/09/11 02:38:35;;;;;;;17.58;12.70;;;;;;;;;;4991003;28;99367;-86
2023/09/11 02:41:01;;;;;;;18.98;12.63;;;;;;;;;;5011209;28;98474;-85
2023/09/11 02:43:35;;;;;;;17.73;12.52;;;;;;;;;;5011756;28;100013;-87
2023/09/11 02:46:03;;;;;;;16.85;12.77;;;;;;;;;;4988135;28;98575;-87
2023/09/11 02:48:31;;;;;;;17.85;12.13;;;;;;;;;;4988162;28;101628;-87
2023/09/11 02:50:58;;;;;;;16.70;11.73;;;;;;;;;;5006123;28;99216;-87
2023/09/11 02:53:25;;;;;;;20.33;13.15;;;;;;;;;;5009550;28;98536;-87
2023/09/11 02:55:52;;;;;;;;;;;;;;;;;;5021996;28;98762;-86
2023/09/11 02:58:18;;;;;;;20.70;13.02;;;;;;;;;;5028502;28;111530;-85
2023/09/11 03:00:45;;;;;;;17.88;12.27;;;;;;;;;;4994876;28;97869;-87
2023/09/11 03:03:11;;;;;;;19.67;13.48;;;;;;;;;;5008880;28;98407;-87
2023/09/11 03:05:38;;;;;;;21.58;14.25;;;;;;;;;;4977238;28;102254;-86
2023/09/11 03:08:06;;;;;;;21.92;15.07;;;;;;;;;;4976473;28;101645;-88
2023/09/11 03:10:32;;;;;;;20.42;14.32;;;;;;;;;;4983144;28;100365;-87
2023/09/11 03:12:59;;;;;;;21.20;15.73;;;;;;;;;;4967777;28;98534;-87
2023/09/11 03:15:27;;;;;;;22.73;14.63;;;;;;;;;;5008768;28;100675;-86
2023/09/11 03:17:54;;;;;;;20.88;14.65;;;;;;;;;;4992170;28;101004;-85
2023/09/11 03:20:21;;;;;;;23.77;15.10;;;;;;;;;;4990897;28;98617;-85
2023/09/11 03:22:48;;;;;;;25.33;15.32;;;;;;;;;;4989870;28;101858;-85
2023/09/11 03:25:15;;;;;;;20.73;14.50;;;;;;;;;;4974455;28;100695;-85
2023/09/11 03:27:42;;;;;;;21.25;14.73;;;;;;;;;;4994368;28;98570;-86
2023/09/11 03:30:09;;;;;;;24.25;14.90;;;;;;;;;;4990555;28;102488;-85
2023/09/11 03:32:36;;;;;;;22.50;14.82;;;;;;;;;;4990672;28;99395;-86
2023/09/11 03:35:03;;;;;;;25.88;15.63;;;;;;;;;;4991064;28;102544;-85
2023/09/11 03:37:30;;;;;;;23.67;15.85;;;;;;;;;;4990793;28;101077;-86
2023/09/11 03:39:58;;;;;;;23.58;15.73;;;;;;;;;;5009724;28;98508;-86
2023/09/11 03:42:25;;;;;;;23.55;15.55;;;;;;;;;;5013987;28;99009;-85
2023/09/11 03:44:52;;;;;;;21.77;14.90;;;;;;;;;;4998941;28;102083;-85
2023/09/11 03:47:18;;;;;;;21.75;14.73;;;;;;;;;;5020545;28;98517;-87
2023/09/11 03:49:45;;;;;;;23.90;15.10;;;;;;;;;;4982469;28;99578;-87
2023/09/11 03:52:13;;;;;;;22.70;14.23;;;;;;;;;;5002450;28;98622;-87
2023/09/11 03:54:40;;;;;;;22.63;13.77;;;;;;;;;;5004647;28;100740;-86
2023/09/11 03:57:07;;;;;;;17.98;13.40;;;;;;;;;;5004718;28;103032;-86
2023/09/11 03:59:34;;;;;;;22.70;14.27;;;;;;;;;;5025280;28;100665;-85
2023/09/11 04:02:01;;;;;;;20.80;13.70;;;;;;;;;;5027890;28;98962;-85
2023/09/11 04:04:27;;;;;;;19.55;13.00;;;;;;;;;;5007833;28;100667;-86
2023/09/11 04:06:54;;;;;;;21.00;13.90;;;;;;;;;;5027803;27;98093;-86
2023/09/11 04:09:22;;;;;;;22.33;14.55;;;;;;;;;;5035133;27;98439;-86
2023/09/11 04:11:49;;;;;;;19.23;13.98;;;;;;;;;;5012815;28;98270;-86
2023/09/11 04:14:15;;;;;;;22.23;15.77;;;;;;;;;;5013567;28;100521;-86
2023/09/11 04:16:42;;;;;;;22.52;15.32;;;;;;;;;;5030564;28;99550;-86
2023/09/11 04:19:09;;;;;;;22.92;15.80;;;;;;;;;;4992303;28;98452;-86
2023/09/11 04:21:35;;;;;;;21.65;15.18;;;;;;;;;;5002260;28;99867;-86
2023/09/11 04:24:02;;;;;;;26.00;15.88;;;;;;;;;;5015795;28;99061;-87
2023/09/11 04:26:29;;;;;;;20.38;14.85;;;;;;;;;;5024869;28;98491;-84
2023/09/11 04:28:56;;;;;;;23.25;15.52;;;;;;;;;;5011131;28;100619;-86
2023/09/11 04:31:23;;;;;;;22.13;14.45;;;;;;;;;;4998512;28;100750;-86
2023/09/11 04:33:50;;;;;;;21.80;15.52;;;;;;;;;;4990021;28;100153;-87
2023/09/11 04:36:17;;;;;;;22.30;15.35;;;;;;;;;;4972870;28;101821;-86
2023/09/11 04:38:44;;;;;;;24.98;16.27;;;;;;;;;;4989351;28;97995;-86
2023/09/11 04:41:11;;;;;;;23.15;14.68;;;;;;;;;;4989321;28;100963;-87
2023/09/11 04:43:37;;;;;;;24.20;15.93;;;;;;;;;;4989004;28;101868;-86
2023/09/11 04:46:04;;;;;;;20.90;15.05;;;;;;;;;;5002150;28;99279;-86
2023/09/11 04:48:30;;;;;;;20.52;14.48;;;;;;;;;;4990661;28;102040;-86
2023/09/11 04:50:57;;;;;;;24.77;16.05;;;;;;;;;;4989548;28;100388;-86
2023/09/11 04:53:24;;;;;;;24.02;16.02;;;;;;;;;;4992547;28;98596;-86
2023/09/11 04:55:51;;;;;;;26.02;16.27;;;;;;;;;;4973472;28;101937;-87
2023/09/11 04:58:18;;;;;;;23.27;16.40;;;;;;;;;;5006583;28;98595;-86
2023/09/11 05:00:45;;;;;;;27.00;17.40;;;;;;;;;;5008299;28;98938;-87
2023/09/11 05:03:11;;;;;;;23.42;17.15;;;;;;;;;;5009198;28;99095;-87
2023/09/11 05:05:40;;;;;;;23.13;16.35;;;;;;;;;;4973835;28;98834;-87
2023/09/11 05:08:08;;;;;;;23.10;15.98;;;;;;;;;;4991220;28;101333;-87
2023/09/11 05:10:39;;;;;;;24.27;16.02;;;;;;;;;;4989193;28;101323;-87
2023/09/11 05:13:06;;;;;;;25.58;18.02;;;;;;;;;;5007297;28;98491;-88
2023/09/11 05:15:33;;;;;;;25.52;16.58;;;;;;;;;;5010366;28;98865;-88
2023/09/11 05:18:00;;;;;;;25.95;15.48;;;;;;;;;;5012934;28;98555;-89
2023/09/11 05:20:26;;;;;;;23.20;16.20;;;;;;;;;;4975367;28;101772;-88
2023/09/11 05:22:53;;;;;;;20.88;14.48;;;;;;;;;;5002333;28;101660;-88
2023/09/11 05:25:20;;;;;;;24.05;16.73;;;;;;;;;;5030750;28;98088;-87
2023/09/11 05:27:46;;;;;;;26.70;17.20;;;;;;;;;;5025303;28;98050;-87
2023/09/11 05:30:13;;;;;;;25.15;16.98;;;;;;;;;;5011946;28;98795;-87
2023/09/11 05:32:40;;;;;;;25.50;17.00;;;;;;;;;;5007907;28;98896;-88
2023/09/11 05:35:07;;;;;;;24.77;18.08;;;;;;;;;;5007285;28;99779;-87
2023/09/11 05:37:34;;;;;;;24.95;17.85;;;;;;;;;;4997088;28;99459;-87
2023/09/11 05:40:02;;;;;;;25.52;18.05;;;;;;;;;;5007924;28;98800;-87
2023/09/11 05:42:29;;;;;;;31.60;18.05;;;;;;;;;;5007651;28;99289;-87
2023/09/11 05:44:56;;;;;;;24.70;18.98;;;;;;;;;;5008268;28;98978;-87
2023/09/11 05:47:23;;;;;;;25.67;18.67;;;;;;;;;;5006898;28;99823;-87
2023/09/11 05:49:49;;;;;;;27.65;19.17;;;;;;;;;;5006458;28;99287;-87
2023/09/11 05:52:16;;;;;;;26.95;18.38;;;;;;;;;;4989328;28;98214;-88
2023/09/11 05:54:42;;;;;;;27.98;19.42;;;;;;;;;;4988339;28;99569;-88
2023/09/11 05:57:09;;;;;;;26.73;18.92;;;;;;;;;;4991460;28;100705;-88
2023/09/11 05:59:37;;;;;;;29.55;18.88;;;;;;;;;;5006056;28;99219;-88
2023/09/11 06:02:03;;;;;;;27.13;18.83;;;;;;;;;;4991994;28;100351;-89
2023/09/11 06:04:30;;;;;;;26.15;14.75;;;;;;;;;;5007616;28;98444;-83
2023/09/11 06:06:57;;;;;;;;;;;;;;;;;;5009204;28;99291;-85
2023/09/11 06:09:24;;;;;;;26.48;17.40;;;;;;;;;;5007167;28;103544;-86
2023/09/11 06:11:52;;;;;;;24.40;17.17;;;;;;;;;;4993199;28;99015;-86
2023/09/11 06:14:19;;;;;;;21.55;14.38;;;;;;;;;;4986992;28;98923;-86
2023/09/11 06:16:48;;;;;;;21.95;14.60;;;;;;;;;;5000694;28;98358;-85
2023/09/11 06:19:14;;;;;;;25.42;14.73;;;;;;;;;;5009778;28;98691;-87
2023/09/11 06:21:45;;;;;;;21.70;14.20;;;;;;;;;;4986859;28;99143;-85
2023/09/11 06:24:12;;;;;;;21.48;12.85;;;;;;;;;;5004570;28;99657;-86
2023/09/11 06:26:41;;;;;;;20.33;13.55;;;;;;;;;;4986226;28;103011;-86
2023/09/11 06:29:08;;;;;;;20.45;13.35;;;;;;;;;;4970672;28;102453;-87
2023/09/11 06:31:35;;;;;;;21.50;13.82;;;;;;;;;;4980681;28;99464;-87
2023/09/11 06:34:02;;;;;;;21.40;13.27;;;;;;;;;;5003265;28;98922;-86
2023/09/11 06:36:28;;;;;;;21.35;13.73;;;;;;;;;;4993440;28;99435;-86
2023/09/11 06:38:55;;;;;;;21.38;12.57;;;;;;;;;;4970029;28;99163;-85
2023/09/11 06:41:22;;;;;;;23.98;13.73;;;;;;;;;;5007489;28;98947;-85
2023/09/11 06:43:48;;;;;;;19.70;12.98;;;;;;;;;;5004554;28;98945;-85
2023/09/11 06:46:16;;;;;;;22.80;13.70;;;;;;;;;;4999287;28;99007;-86
2023/09/11 06:48:42;;;;;;;22.70;12.90;;;;;;;;;;4967994;28;99792;-87
2023/09/11 06:51:09;;;;;;;;;;;;;;;;;;4987050;28;98874;-85
2023/09/11 06:53:36;;;;;;;24.45;13.93;;;;;;;;;;4986913;28;99547;-85
2023/09/11 06:56:05;;;;;;;19.70;12.68;;;;;;;;;;4988525;28;99859;-85
2023/09/11 06:58:31;;;;;;;21.45;12.65;;;;;;;;;;4991092;28;99330;-86
2023/09/11 07:00:58;;;;;;;21.20;12.73;;;;;;;;;;4997088;28;99665;-86
2023/09/11 07:03:25;;;;;;;21.02;13.25;;;;;;;;;;4986364;28;100217;-85
2023/09/11 07:05:51;;;;;;;20.02;13.27;;;;;;;;;;5001799;28;99386;-86
2023/09/11 07:08:18;;;;;;;20.77;12.90;;;;;;;;;;4989026;28;99275;-86
2023/09/11 07:10:50;;;;;;;20.00;12.07;;;;;;;;;;5003128;28;99054;-86
2023/09/11 07:13:17;;;;;;;21.52;12.55;;;;;;;;;;4984575;28;99986;-86
2023/09/11 07:15:43;;;;;;;22.27;12.13;;;;;;;;;;5003443;28;99743;-87
2023/09/11 07:18:10;;;;;;;19.60;12.63;;;;;;;;;;5001171;28;99575;-84
2023/09/11 07:20:36;;;;;;;18.75;12.07;;;;;;;;;;5003708;28;98978;-84
2023/09/11 07:23:03;;;;;;;18.85;12.23;;;;;;;;;;5001804;28;99360;-84
2023/09/11 07:25:30;;;;;;;21.35;12.23;;;;;;;;;;4988551;28;98899;-83
2023/09/11 07:27:56;;;;;;;19.77;11.20;;;;;;;;;;4990991;28;102302;-86
2023/09/11 07:30:29;;;;;;;20.38;12.00;;;;;;;;;;5018666;28;97690;-85
2023/09/11 07:32:56;;;;;;;17.13;10.85;;;;;;;;;;5013768;28;100294;-84
2023/09/11 07:35:22;;;;;;;17.33;11.93;;;;;;;;;;5010044;28;99137;-83
2023/09/11 07:37:49;;;;;;;17.70;10.77;;;;;;;;;;5006037;28;99289;-82
2023/09/11 07:40:16;;;;;;;16.42;9.73;;;;;;;;;;5001876;28;99461;-84
2023/09/11 07:42:43;;;;;;;20.92;11.50;;;;;;;;;;4996159;28;99550;-84
2023/09/11 07:45:09;;;;;;;19.08;10.98;;;;;;;;;;4986490;28;98805;-83
2023/09/11 07:47:36;;;;;;;16.33;9.82;;;;;;;;;;4995195;28;99255;-84
2023/09/11 07:50:03;;;;;;;20.08;11.27;;;;;;;;;;5017972;28;98544;-83
2023/09/11 07:52:29;;;;;;;22.85;12.77;;;;;;;;;;5021744;28;98739;-84
2023/09/11 07:54:57;;;;;;;21.33;11.57;;;;;;;;;;5019327;28;98303;-83
2023/09/11 07:57:24;;;;;;;17.27;10.55;;;;;;;;;;5015606;28;98745;-83
2023/09/11 07:59:51;;;;;;;20.52;11.73;;;;;;;;;;5016474;28;99574;-83
2023/09/11 08:02:17;;;;;;;17.88;11.32;;;;;;;;;;4984189;28;99708;-82
2023/09/11 08:04:44;;;;;;;17.70;10.05;;;;;;;;;;4981422;28;98902;-83
2023/09/11 08:07:11;;;;;;;16.23;10.35;;;;;;;;;;5007606;28;99197;-83
2023/09/11 08:09:38;;;;;;;16.98;9.85;;;;;;;;;;5004688;28;100737;-82
2023/09/11 08:12:05;;;;;;;16.65;10.00;;;;;;;;;;5009325;28;99075;-83
2023/09/11 08:14:31;;;;;;;17.90;10.65;;;;;;;;;;4989684;28;100067;-83
2023/09/11 08:16:58;;;;;;;17.23;9.77;;;;;;;;;;5008901;28;99103;-82
2023/09/11 08:19:24;;;;;;;18.08;11.52;;;;;;;;;;5018228;28;99067;-83
2023/09/11 08:21:54;;;;;;;21.90;12.73;;;;;;;;;;4989125;28;100934;-82
2023/09/11 08:24:21;;;;;;;20.17;11.90;;;;;;;;;;5005146;28;98713;-83
2023/09/11 08:26:48;;;;;;;18.20;9.55;;;;;;;;;;5008042;28;99297;-84
2023/09/11 08:29:15;;;;;;;21.80;10.25;;;;;;;;;;4991832;28;99200;-82
2023/09/11 08:31:41;;;;;;;19.52;10.43;;;;;;;;;;4990308;28;99070;-82
2023/09/11 08:34:08;;;;;;;17.08;9.98;;;;;;;;;;5005028;28;100052;-82
2023/09/11 08:36:35;;;;;;;15.32;8.50;;;;;;;;;;5011275;28;98701;-83
2023/09/11 08:39:02;;;;;;;21.13;11.45;;;;;;;;;;4994256;28;99037;-82
2023/09/11 08:41:29;;;;;;;17.65;9.80;;;;;;;;;;4990114;28;98594;-82
2023/09/11 08:43:55;;;;;;;18.48;11.50;;;;;;;;;;4984602;28;97866;-83
2023/09/11 08:46:23;;;;;;;17.38;9.93;;;;;;;;;;5010261;28;98528;-82
2023/09/11 08:48:53;;;;;;;14.32;8.73;;;;;;;;;;5010926;28;99213;-82
2023/09/11 08:51:22;;;;;;;16.05;9.38;;;;;;;;;;5010085;28;99575;-81
2023/09/11 08:53:51;;;;;;;19.40;10.68;;;;;;;;;;4988636;28;99227;-83
2023/09/11 08:56:17;;;;;;;19.30;9.18;;;;;;;;;;4972551;28;98591;-79
2023/09/11 08:58:45;;;;;;;15.23;8.65;;;;;;;;;;4989320;28;99265;-82
2023/09/11 09:01:11;;;;;;;16.63;8.95;;;;;;;;;;5006264;28;99264;-80
2023/09/11 09:03:40;;;;;;;12.63;7.63;;;;;;;;;;5002947;28;98812;-81
2023/09/11 09:06:07;;;;;;;11.25;6.65;;;;;;;;;;4988877;28;101558;-81
2023/09/11 09:08:34;;;;;;;13.45;7.43;;;;;;;;;;5008588;28;98670;-82
2023/09/11 09:11:01;;;;;;;14.30;8.02;;;;;;;;;;4984333;28;98564;-82
2023/09/11 09:13:31;;;;;;;14.07;7.15;;;;;;;;;;4991066;28;99256;-83
2023/09/11 09:15:58;;;;;;;13.95;7.80;;;;;;;;;;4983279;28;99626;-83
2023/09/11 09:18:24;;;;;;;13.48;7.57;;;;;;;;;;4986767;28;100614;-84
2023/09/11 09:20:51;;;;;;;16.45;8.82;;;;;;;;;;4984998;28;101904;-82
2023/09/11 09:23:18;;;;;;;;;;;;;;;;;;4999890;28;98718;-85
2023/09/11 09:25:44;;;;;;;11.98;6.45;;;;;;;;;;4992728;28;98579;-83
2023/09/11 09:28:26;;;;;;;10.48;6.13;;;;;;;;;;5002450;28;99232;-83
2023/09/11 09:30:54;;;;;;;11.65;5.95;;;;;;;;;;4982489;28;99003;-82
2023/09/11 09:33:21;;;;;;;10.90;6.10;;;;;;;;;;4982945;28;98834;-82
2023/09/11 09:35:48;;;;;;;;;;;;;;;;;;4984734;28;100718;-83
2023/09/11 09:38:18;;;;;;;12.30;5.70;;;;;;;;;;4982967;28;116163;-82
2023/09/11 09:40:45;;;;;;;11.20;5.75;;;;;;;;;;4970883;28;100082;-82
2023/09/11 09:43:15;;;;;;;10.90;5.70;;;;;;;;;;4981110;28;98997;-82
2023/09/11 09:45:42;;;;;;;10.35;5.60;;;;;;;;;;4983313;28;99280;-82
2023/09/11 09:48:09;;;;;;;;;;;;;;;;;;4978919;28;99971;-83
2023/09/11 09:50:56;;;;;;;9.60;5.65;;;;;;;;;;4975471;28;98932;-82
2023/09/11 09:53:25;;;;;;;11.10;5.45;;;;;;;;;;4984993;28;98709;-82
2023/09/11 09:55:53;;;;;;;9.80;5.60;;;;;;;;;;4985058;28;99775;-82
2023/09/11 09:58:28;;;;;;;9.93;5.60;;;;;;;;;;4989556;28;98262;-82
2023/09/11 10:01:05;;;;;;;10.13;5.47;;;;;;;;;;5007209;28;98182;-82
2023/09/11 10:03:39;;;;;;;8.93;5.38;;;;;;;;;;4990966;28;98685;-83
2023/09/11 10:06:08;;;;;;;9.70;5.25;;;;;;;;;;4983709;28;99277;-82
2023/09/11 10:08:35;;;;;;;11.55;5.15;;;;;;;;;;4972716;28;99016;-84
2023/09/11 10:11:02;;;;;;;;;;;;;;;;;;4984376;28;99017;-81
2023/09/11 10:13:31;;;;;;;8.65;4.88;;;;;;;;;;4983792;28;101384;-84
2023/09/11 10:16:01;;;;;;;8.80;4.65;;;;;;;;;;4984088;28;99093;-82
2023/09/11 10:18:30;;;;;;;8.20;5.13;;;;;;;;;;4986324;28;98604;-81
2023/09/11 10:20:57;;;;;;;9.43;4.97;;;;;;;;;;4985184;28;100169;-82
2023/09/11 10:23:24;;;;;;;8.57;4.78;;;;;;;;;;4991292;28;98256;-83
2023/09/11 10:25:54;;;;;;;8.07;5.10;;;;;;;;;;4989434;28;98551;-83
2023/09/11 10:28:39;;;;;;;9.35;4.63;;;;;;;;;;4984971;28;101281;-84
2023/09/11 10:31:19;;;;;;;8.30;4.88;;;;;;;;;;4939760;28;1221017;-83
2023/09/11 10:33:48;;;;;;;7.93;4.50;;;;;;;;;;4986053;28;100154;-83
2023/09/11 10:36:14;;;;;;;7.85;4.50;;;;;;;;;;4985104;28;99578;-83
2023/09/11 10:38:43;;;;;;;7.28;4.30;;;;;;;;;;4985989;28;98805;-84
2023/09/11 10:41:10;;;;;;;7.28;4.22;;;;;;;;;;4988893;28;98753;-82
2023/09/11 10:43:37;;;;;;;7.90;4.65;;;;;;;;;;4989406;28;98586;-83
2023/09/11 10:46:33;;;;;;;8.38;4.35;;;;;;;;;;4987778;28;99616;-82
2023/09/11 10:49:06;;;;;;;7.47;4.40;;;;;;;;;;4959292;28;99254;-82
2023/09/11 10:51:32;;;;;;;8.90;4.75;;;;;;;;;;4985362;28;98699;-82
2023/09/11 10:53:59;;;;;;;;;;;;;;;;;;4984648;28;100034;-82
2023/09/11 10:56:25;;;;;;;8.13;4.00;;;;;;;;;;4984660;28;108111;-82
2023/09/11 10:58:52;;;;;;;8.60;4.40;;;;;;;;;;4986194;28;98500;-82
2023/09/11 11:01:19;;;;;;;7.00;4.15;;;;;;;;;;4984817;28;101285;-81
2023/09/11 11:03:49;;;;;;;7.20;4.07;;;;;;;;;;4986754;28;99172;-82
2023/09/11 11:06:16;;;;;;;7.55;4.05;;;;;;;;;;4968088;28;99508;-83
2023/09/11 11:08:43;;;;;;;8.00;4.05;;;;;;;;;;4980606;28;99679;-84
2023/09/11 11:11:27;;;;;;;7.82;3.90;;;;;;;;;;4977370;28;98871;-83
2023/09/11 11:14:10;;;;;;;6.68;3.80;;;;;;;;;;5001455;28;98898;-84
2023/09/11 11:16:37;;;;;;;7.35;3.83;;;;;;;;;;4985769;28;98964;-83
2023/09/11 11:19:04;;;;;;;9.27;4.00;;;;;;;;;;4977893;28;98728;-82
2023/09/11 11:21:30;;;;;;;;;;;;;;;;;;4985217;28;99790;-84
2023/09/11 11:24:00;;;;;;;7.10;3.72;;;;;;;;;;4977636;28;102536;-83
2023/09/11 11:26:29;;;;;;;7.82;4.00;;;;;;;;;;4991011;28;98603;-83
2023/09/11 11:28:56;;;;;;;7.63;3.72;;;;;;;;;;4996776;28;98800;-84
2023/09/11 11:31:23;;;;;;;9.93;4.32;;;;;;;;;;4983959;28;98649;-84
2023/09/11 11:33:50;;;;;;;;;;;;;;;;;;4988720;28;99905;-84
2023/09/11 11:36:17;;;;;;;8.15;3.83;;;;;;;;;;4988148;28;121564;-83
2023/09/11 11:38:44;;;;;;;9.30;3.97;;;;;;;;;;4991037;28;97824;-83
2023/09/11 11:41:11;;;;;;;8.35;3.92;;;;;;;;;;4988533;28;98952;-82
2023/09/11 11:43:41;;;;;;;8.70;3.88;;;;;;;;;;4992697;28;99102;-82
2023/09/11 11:46:09;;;;;;;9.25;4.20;;;;;;;;;;4986825;28;100309;-82
2023/09/11 11:48:37;;;;;;;7.45;3.90;;;;;;;;;;4991330;28;99574;-82
2023/09/11 11:51:04;;;;;;;8.60;3.80;;;;;;;;;;4988035;28;99033;-82
2023/09/11 11:53:30;;;;;;;;;;;;;;;;;;4988699;28;99921;-83
2023/09/11 11:55:58;;;;;;;10.05;3.80;;;;;;;;;;4985553;28;124099;-82
2023/09/11 11:58:25;;;;;;;8.07;3.60;;;;;;;;;;4988716;28;98898;-81
2023/09/11 12:00:56;;;;;;;7.32;3.55;;;;;;;;;;4989453;28;99176;-82
2023/09/11 12:03:23;;;;;;;7.30;3.75;;;;;;;;;;4987054;28;101269;-82
2023/09/11 12:05:49;;;;;;;;;;;;;;;;;;4990301;28;98561;-82
2023/09/11 12:08:16;;;;;;;7.60;3.33;;;;;;;;;;4994373;28;109368;-82
2023/09/11 12:10:44;;;;;;;;;;;;;;;;;;4993226;28;99308;-82
2023/09/11 12:13:16;;;;;;;8.50;3.38;;;;;;;;;;4990268;28;111205;-83
2023/09/11 12:15:43;;;;;;;8.00;3.05;;;;;;;;;;5008176;28;99770;-83
2023/09/11 12:18:12;;;;;;;9.45;3.42;;;;;;;;;;5007120;28;98675;-83
2023/09/11 12:20:49;;;;;;;8.13;3.20;;;;;;;;;;5009454;28;99047;-82
2023/09/11 12:23:18;;;;;;;9.13;3.38;;;;;;;;;;5014560;28;98474;-82
2023/09/11 12:25:44;;;;;;;8.23;3.42;;;;;;;;;;5008252;28;98486;-83
2023/09/11 12:28:11;;;;;;;7.88;3.40;;;;;;;;;;5009961;28;98953;-83
2023/09/11 12:30:37;;;;;;;;;;;;;;;;;;5002837;28;99769;-83
2023/09/11 12:33:05;;;;;;;6.15;2.97;;;;;;;;;;4985687;28;103634;-82
2023/09/11 12:35:32;;;;;;;8.30;3.03;;;;;;;;;;5005058;28;100238;-82
2023/09/11 12:37:59;;;;;;;7.32;3.10;;;;;;;;;;5004044;28;98662;-83
2023/09/11 12:40:25;;;;;;;7.97;3.30;;;;;;;;;;5005483;28;99116;-81
2023/09/11 12:42:52;;;;;;;7.95;3.13;;;;;;;;;;5000801;28;99197;-83
2023/09/11 12:45:19;;;;;;;8.43;3.15;;;;;;;;;;4987410;28;98574;-83
2023/09/11 12:47:46;;;;;;;5.60;2.70;;;;;;;;;;4988506;28;98685;-84
2023/09/11 12:50:12;;;;;;;;;;;;;;;;;;4988753;28;100528;-82
2023/09/11 12:52:39;;;;;;;7.32;3.33;;;;;;;;;;4993943;28;98912;-83
2023/09/11 12:55:06;;;;;;;6.78;3.10;;;;;;;;;;4990896;28;99197;-82
2023/09/11 12:57:32;;;;;;;;;;;;;;;;;;4997012;28;98565;-83
2023/09/11 12:59:59;;;;;;;7.75;3.22;;;;;;;;;;4995966;28;118237;-82
2023/09/11 13:02:25;;;;;;;;;;;;;;;;;;4992368;28;99266;-82
2023/09/11 13:04:53;;;;;;;6.55;2.85;;;;;;;;;;4992943;28;98969;-83
2023/09/11 13:07:21;;;;;;;10.40;3.30;;;;;;;;;;4986232;28;99019;-83
2023/09/11 13:09:49;;;;;;;10.00;3.42;;;;;;;;;;4989959;28;99129;-84
2023/09/11 13:12:15;;;;;;;6.07;3.00;;;;;;;;;;4986847;28;99056;-83
2023/09/11 13:14:42;;;;;;;7.30;3.00;;;;;;;;;;4992214;28;98941;-84
2023/09/11 13:17:09;;;;;;;9.32;3.00;;;;;;;;;;4996347;28;98168;-84
2023/09/11 13:19:36;;;;;;;6.53;3.03;;;;;;;;;;4999711;28;101269;-83
2023/09/11 13:22:05;;;;;;;6.50;3.33;;;;;;;;;;4998392;28;99269;-83
2023/09/11 13:24:31;;;;;;;7.15;3.38;;;;;;;;;;5000076;28;99812;-83
2023/09/11 13:26:58;;;;;;;7.25;3.50;;;;;;;;;;4986135;28;102406;-84
2023/09/11 13:29:24;;;;;;;;;;;;;;;;;;4998575;28;98552;-83
2023/09/11 13:31:51;;;;;;;8.60;3.97;;;;;;;;;;4994735;28;108789;-83
2023/09/11 13:34:17;;;;;;;;;;;;;;;;;;4985478;28;98602;-83
2023/09/11 13:36:44;;;;;;;7.63;3.63;;;;;;;;;;4983759;28;110065;-84
2023/09/11 13:39:11;;;;;;;8.50;3.60;;;;;;;;;;4977775;28;99092;-84
2023/09/11 13:41:38;;;;;;;7.00;3.58;;;;;;;;;;4989859;28;98483;-83
2023/09/11 13:44:05;;;;;;;;;;;;;;;;;;4989067;28;99496;-83
2023/09/11 13:46:31;;;;;;;9.35;4.40;;;;;;;;;;4987999;28;114769;-83
2023/09/11 13:48:58;;;;;;;8.77;4.30;;;;;;;;;;4985927;28;100048;-83
2023/09/11 13:51:25;;;;;;;9.05;4.10;;;;;;;;;;4987484;28;98522;-83
2023/09/11 13:53:52;;;;;;;7.68;4.00;;;;;;;;;;4968183;28;101361;-83
2023/09/11 13:56:18;;;;;;;7.82;4.40;;;;;;;;;;4986047;28;99623;-83
2023/09/11 13:58:45;;;;;;;9.70;4.70;;;;;;;;;;4987521;28;98630;-83
2023/09/11 14:01:15;;;;;;;11.18;5.10;;;;;;;;;;4984458;28;100121;-84
2023/09/11 14:03:41;;;;;;;9.52;4.95;;;;;;;;;;4975808;28;98999;-85
2023/09/11 14:06:09;;;;;;;14.45;5.30;;;;;;;;;;4985671;28;98245;-83
2023/09/11 14:08:36;;;;;;;11.50;4.85;;;;;;;;;;4950536;28;102350;-84
2023/09/11 14:11:02;;;;;;;10.95;5.22;;;;;;;;;;4978004;28;98535;-86
2023/09/11 14:13:29;;;;;;;13.30;5.65;;;;;;;;;;4977852;28;101981;-86
2023/09/11 14:15:55;;;;;;;10.48;5.88;;;;;;;;;;4977698;28;99327;-86
2023/09/11 14:18:22;;;;;;;;;;;;;;;;;;4984744;28;99105;-85
2023/09/11 14:20:49;;;;;;;10.05;5.80;;;;;;;;;;4980864;28;121536;-85
2023/09/11 14:23:15;;;;;;;10.90;5.60;;;;;;;;;;4981620;28;98623;-87
2023/09/11 14:25:44;;;;;;;10.93;5.78;;;;;;;;;;4962619;28;102036;-85
2023/09/11 14:28:10;;;;;;;9.63;5.70;;;;;;;;;;4975717;28;99329;-86
2023/09/11 14:30:37;;;;;;;10.10;5.65;;;;;;;;;;4972491;28;98761;-85
2023/09/11 14:33:04;;;;;;;11.75;5.97;;;;;;;;;;4985548;28;98580;-87